Time;durP1;ratioP1;P1;durP2;ratioP2;P2;SDS_P1;SDS_P2;PMS_P1;PMS_P2;Temp;Humidity;BMP_temperature;BMP_pressure;BME280_temperature;BME280_humidity;BME280_pressure;Samples;Min_cycle;Max_cycle;Signal;HPM_P1;HPM_P2
2022/10/01 00:02:08;;;;;;;1.50;1.40;;;;;;;12.43;60.07;100496.50;4855965;28;97217;-51
2022/10/01 00:04:38;;;;;;;5.30;1.90;;;;;;;12.46;60.26;100487.22;4866696;28;96978;-50
2022/10/01 00:07:08;;;;;;;1.80;1.70;;;;;;;12.48;60.13;100492.97;4863826;28;97303;-50
2022/10/01 00:09:33;;;;;;;1.70;1.60;;;;;;;12.50;60.21;100485.69;4855107;28;98466;-50
2022/10/01 00:11:59;;;;;;;1.50;1.40;;;;;;;12.51;60.27;100476.19;4870180;28;97135;-51
2022/10/01 00:14:26;;;;;;;1.73;1.40;;;;;;;12.50;60.24;100474.66;4867406;28;97262;-52
2022/10/01 00:16:52;;;;;;;1.43;1.33;;;;;;;12.50;60.27;100474.66;4860694;28;97454;-51
2022/10/01 00:19:17;;;;;;;1.30;1.10;;;;;;;12.52;60.36;100465.88;4868118;28;97690;-50
2022/10/01 00:21:42;;;;;;;1.87;1.30;;;;;;;12.52;60.32;100465.88;4849238;28;110405;-50
2022/10/01 00:24:11;;;;;;;3.13;1.40;;;;;;;12.52;60.40;100466.63;4869301;28;108164;-51
2022/10/01 00:26:37;;;;;;;4.63;1.53;;;;;;;12.52;60.44;100460.34;4867059;28;97074;-51
2022/10/01 00:29:10;;;;;;;1.37;1.27;;;;;;;12.53;60.40;100461.84;4858578;28;97590;-50
2022/10/01 00:31:36;;;;;;;1.57;1.23;;;;;;;12.51;60.38;100453.34;4864853;28;96731;-50
2022/10/01 00:34:02;;;;;;;4.47;1.50;;;;;;;12.52;60.42;100452.06;4853238;28;97509;-51
2022/10/01 00:36:28;;;;;;;2.13;1.97;;;;;;;12.50;60.49;100452.59;4870748;28;96954;-50
2022/10/01 00:38:57;;;;;;;3.07;1.37;;;;;;;12.51;60.47;100443.06;4866806;28;97708;-50
2022/10/01 00:41:23;;;;;;;3.00;1.37;;;;;;;12.51;60.33;100445.81;4855265;28;97261;-51
2022/10/01 00:43:54;;;;;;;1.40;1.30;;;;;;;12.52;60.23;100439.03;4870557;28;98305;-50
2022/10/01 00:46:31;;;;;;;3.47;1.50;;;;;;;12.55;60.64;100434.50;4852182;28;97537;-51
2022/10/01 00:49:14;;;;;;;1.40;1.30;;;;;;;12.55;60.50;100440.03;4868301;28;97698;-50
2022/10/01 00:51:44;;;;;;;1.90;1.50;;;;;;;12.54;60.48;100431.00;4861065;28;98226;-50
2022/10/01 00:54:13;;;;;;;1.93;1.70;;;;;;;12.54;60.45;100425.47;4865220;28;96959;-50
2022/10/01 00:56:40;;;;;;;1.20;1.00;;;;;;;12.55;60.39;100426.22;4847231;28;97636;-51
2022/10/01 00:59:06;;;;;;;4.50;1.40;;;;;;;12.55;60.44;100426.97;4870737;28;97674;-51
2022/10/01 01:01:34;;;;;;;1.80;1.50;;;;;;;12.55;60.63;100409.66;4864173;28;103139;-51
2022/10/01 01:04:00;;;;;;;6.23;1.70;;;;;;;12.55;60.38;100409.66;4854960;28;96908;-50
2022/10/01 01:06:25;;;;;;;1.90;1.70;;;;;;;12.54;60.42;100406.16;4861466;28;97493;-50
2022/10/01 01:08:54;;;;;;;1.07;1.07;;;;;;;12.56;60.36;100413.91;4874759;28;97384;-50
2022/10/01 01:11:22;;;;;;;2.90;1.50;;;;;;;12.57;60.46;100413.41;4870523;28;101684;-51
2022/10/01 01:14:09;;;;;;;2.77;1.67;;;;;;;12.57;60.76;100404.38;4868408;28;96940;-51
2022/10/01 01:16:43;;;;;;;4.33;1.20;;;;;;;12.56;60.40;100400.88;4864876;28;96721;-55
2022/10/01 01:19:36;;;;;;;1.73;1.60;;;;;;;12.59;60.79;100396.34;4866252;28;97594;-50
2022/10/01 01:22:05;;;;;;;2.43;1.90;;;;;;;12.60;60.38;100397.84;4859310;28;101376;-50
2022/10/01 01:24:57;;;;;;;1.17;1.13;;;;;;;12.62;60.57;100392.56;4856875;28;97132;-50
2022/10/01 01:27:30;;;;;;;2.80;1.37;;;;;;;12.62;60.25;100396.06;4873374;28;97603;-50
2022/10/01 01:30:07;;;;;;;4.30;1.80;;;;;;;12.65;60.21;100391.53;4867344;28;101832;-50
2022/10/01 01:32:46;;;;;;;2.70;1.50;;;;;;;12.66;60.53;100370.97;4867876;28;101523;-51
2022/10/01 01:35:18;;;;;;;1.50;1.40;;;;;;;12.69;60.38;100378.19;4864360;28;97145;-51
2022/10/01 01:37:49;;;;;;;13.53;1.60;;;;;;;12.68;60.33;100369.19;4849959;28;97522;-51
2022/10/01 01:40:17;;;;;;;3.20;1.47;;;;;;;12.68;60.34;100369.19;4862795;28;97413;-51
2022/10/01 01:42:45;;;;;;;2.83;1.30;;;;;;;12.69;60.42;100359.63;4865114;28;96976;-50
2022/10/01 01:45:16;;;;;;;3.50;1.70;;;;;;;12.72;60.46;100361.38;4853267;28;97507;-51
2022/10/01 01:47:44;;;;;;;1.33;1.23;;;;;;;12.72;60.30;100357.84;4868579;28;97039;-50
2022/10/01 01:50:13;;;;;;;5.20;1.70;;;;;;;12.74;60.39;100355.31;4856092;28;97506;-50
2022/10/01 01:52:40;;;;;;;3.10;1.90;;;;;;;12.76;60.38;100348.03;4867185;28;96885;-50
2022/10/01 01:55:07;;;;;;;1.97;1.30;;;;;;;12.78;60.33;100342.00;4864607;28;97571;-50
2022/10/01 01:57:38;;;;;;;3.40;1.43;;;;;;;12.80;60.34;100336.69;4850534;28;98693;-50
2022/10/01 02:00:04;;;;;;;4.20;1.50;;;;;;;12.79;60.19;100335.97;4864651;28;97143;-50
2022/10/01 02:02:34;;;;;;;2.40;1.27;;;;;;;12.80;60.36;100331.19;4851759;28;96904;-50
2022/10/01 02:05:06;;;;;;;2.27;1.37;;;;;;;12.82;60.13;100325.88;4862595;28;97403;-51
2022/10/01 02:07:54;;;;;;;2.10;1.90;;;;;;;12.84;60.38;100320.63;4856781;28;97363;-53
2022/10/01 02:10:43;;;;;;;3.20;1.40;;;;;;;12.86;60.40;100318.09;4868662;28;98322;-50
2022/10/01 02:13:34;;;;;;;1.50;1.40;;;;;;;12.90;60.24;100315.78;4876471;28;101804;-51
2022/10/01 02:16:22;;;;;;;1.30;1.20;;;;;;;12.91;60.28;100314.53;4846677;28;96891;-50
2022/10/01 02:19:20;;;;;;;4.30;1.73;;;;;;;12.94;60.18;100313.50;4874486;28;97755;-50
2022/10/01 02:21:49;;;;;;;1.23;1.13;;;;;;;12.95;60.14;100305.97;4868707;28;100578;-50
2022/10/01 02:24:26;;;;;;;2.00;1.33;;;;;;;12.99;60.15;100306.44;4857508;28;97411;-50
2022/10/01 02:26:54;;;;;;;1.50;1.40;;;;;;;13.01;59.93;100296.38;4864773;28;98628;-51
2022/10/01 02:29:22;;;;;;;2.13;1.67;;;;;;;13.04;60.13;100292.56;4854230;28;97198;-50
2022/10/01 02:31:52;;;;;;;1.97;1.50;;;;;;;13.07;60.11;100288.78;4869349;28;97249;-50
2022/10/01 02:34:19;;;;;;;2.30;1.50;;;;;;;13.09;60.03;100291.78;4850621;28;97876;-51
2022/10/01 02:36:46;;;;;;;2.07;1.37;;;;;;;13.09;60.08;100285.50;4872215;28;96757;-50
2022/10/01 02:39:17;;;;;;;4.60;1.47;;;;;;;13.11;60.00;100282.97;4868241;28;98429;-50
2022/10/01 02:41:44;;;;;;;1.27;1.17;;;;;;;13.12;59.94;100278.94;4848635;28;97391;-50
2022/10/01 02:44:15;;;;;;;2.83;1.50;;;;;;;13.14;59.97;100277.19;4869845;28;97222;-50
2022/10/01 02:46:53;;;;;;;1.53;1.30;;;;;;;13.15;60.04;100272.41;4848054;28;97419;-50
2022/10/01 02:49:19;;;;;;;2.00;1.47;;;;;;;13.15;59.99;100270.38;4870385;28;96957;-50
2022/10/01 02:51:59;;;;;;;5.33;1.20;;;;;;;13.18;59.85;100266.56;4852882;28;97955;-51
2022/10/01 02:54:29;;;;;;;3.10;1.70;;;;;;;13.19;59.92;100267.34;4864060;28;97189;-50
2022/10/01 02:59:41;;;;;;;7.93;1.23;;;;;;;13.21;60.00;100265.56;4865748;28;97063;-51
2022/10/01 03:02:06;;;;;;;2.30;1.20;;;;;;;13.24;59.89;100252.69;4851484;28;97830;-50
2022/10/01 03:04:32;;;;;;;3.13;1.20;;;;;;;13.26;59.81;100250.91;4877787;28;98105;-53
2022/10/01 03:07:02;;;;;;;5.57;1.60;;;;;;;13.28;59.66;100242.84;4869006;28;97389;-50
2022/10/01 03:09:31;;;;;;;1.40;1.30;;;;;;;13.30;59.87;100234.78;4856320;28;97357;-51
2022/10/01 03:11:58;;;;;;;3.23;1.30;;;;;;;13.31;59.79;100230.75;4867487;28;97297;-50
2022/10/01 03:14:23;;;;;;;3.80;1.20;;;;;;;13.31;59.85;100230.75;4863494;28;98407;-51
2022/10/01 03:16:52;;;;;;;3.30;1.50;;;;;;;13.33;59.88;100228.22;4871409;28;98144;-50
2022/10/01 03:19:18;;;;;;;3.77;1.50;;;;;;;13.32;59.80;100223.94;4864972;28;96981;-50
2022/10/01 03:21:43;;;;;;;2.30;1.30;;;;;;;13.34;59.79;100221.44;4848959;28;98599;-50
2022/10/01 03:24:08;;;;;;;1.57;1.47;;;;;;;13.38;59.78;100213.59;4866687;28;113857;-50
2022/10/01 03:26:35;;;;;;;1.27;1.20;;;;;;;13.38;59.82;100210.84;4870987;28;108820;-50
2022/10/01 03:29:01;;;;;;;1.27;1.20;;;;;;;13.44;59.76;100210.75;4860441;28;97345;-50
2022/10/01 03:31:26;;;;;;;1.40;1.30;;;;;;;13.45;59.75;100206.72;4870512;28;97570;-50
2022/10/01 03:33:51;;;;;;;3.63;1.33;;;;;;;13.45;59.90;100207.47;4864928;28;97525;-51
2022/10/01 03:36:17;;;;;;;2.50;1.50;;;;;;;13.49;59.77;100207.19;4861420;28;105375;-50
2022/10/01 03:38:42;;;;;;;1.23;1.13;;;;;;;13.50;59.53;100203.88;4869064;28;104764;-50
2022/10/01 03:41:08;;;;;;;2.53;1.10;;;;;;;13.52;59.61;100200.59;4853005;28;97609;-51
2022/10/01 03:43:33;;;;;;;2.67;1.37;;;;;;;13.53;59.47;100202.84;4864931;28;96831;-50
2022/10/01 03:46:00;;;;;;;1.50;1.40;;;;;;;13.57;59.59;100196.25;4870093;28;97386;-50
2022/10/01 03:48:26;;;;;;;1.40;1.13;;;;;;;13.59;59.72;100194.47;4850802;28;97124;-50
2022/10/01 03:50:56;;;;;;;2.20;1.33;;;;;;;13.61;59.50;100197.44;4868437;28;98949;-50
2022/10/01 03:53:23;;;;;;;1.00;1.00;;;;;;;13.64;59.56;100187.38;4871902;28;97332;-51
2022/10/01 03:55:49;;;;;;;3.37;0.90;;;;;;;13.64;59.46;100184.59;4854422;28;97721;-50
2022/10/01 03:58:14;;;;;;;1.97;1.30;;;;;;;13.63;59.63;100188.66;4876444;28;97391;-50
2022/10/01 04:00:40;;;;;;;1.00;1.00;;;;;;;13.62;59.61;100176.09;4856819;28;96881;-50
2022/10/01 04:03:06;;;;;;;2.47;0.80;;;;;;;13.63;59.56;100177.59;4875733;28;96808;-50
2022/10/01 04:05:31;;;;;;;3.07;1.27;;;;;;;13.59;59.93;100166.06;4866915;28;97388;-51
2022/10/01 04:07:58;;;;;;;1.37;1.10;;;;;;;13.55;60.06;100160.84;4859226;28;97016;-51
2022/10/01 04:10:24;;;;;;;0.80;0.80;;;;;;;13.53;60.11;100152.34;4869132;28;98569;-50
2022/10/01 04:12:49;;;;;;;1.03;0.93;;;;;;;13.53;60.20;100144.81;4867539;28;97319;-51
2022/10/01 04:15:15;;;;;;;3.97;1.47;;;;;;;13.52;60.28;100145.31;4864695;28;108985;-50
2022/10/01 04:17:41;;;;;;;1.73;1.30;;;;;;;13.51;60.47;100144.59;4870350;28;97217;-50
2022/10/01 04:20:07;;;;;;;4.80;1.80;;;;;;;13.51;60.49;100139.06;4863424;28;96927;-51
2022/10/01 04:22:38;;;;;;;1.23;1.10;;;;;;;13.51;60.71;100127.25;4861160;28;97705;-51
2022/10/01 04:25:04;;;;;;;3.33;1.57;;;;;;;13.49;60.71;100136.06;4870854;28;97360;-51
2022/10/01 04:27:29;;;;;;;2.03;0.90;;;;;;;13.50;60.52;100136.81;4850688;28;97108;-51
2022/10/01 04:29:54;;;;;;;1.33;1.23;;;;;;;13.47;60.52;100124.81;4864648;28;97471;-51
2022/10/01 04:32:20;;;;;;;3.63;1.23;;;;;;;13.43;60.77;100116.06;4866217;28;117846;-51
2022/10/01 04:34:51;;;;;;;1.40;1.30;;;;;;;13.45;60.97;100112.78;4860535;28;97318;-51
2022/10/01 04:37:17;;;;;;;1.93;1.53;;;;;;;13.44;61.12;100109.25;4869183;28;96938;-51
2022/10/01 04:39:42;;;;;;;1.70;1.17;;;;;;;13.43;60.88;100109.78;4851583;28;98553;-51
2022/10/01 04:42:07;;;;;;;1.37;1.27;;;;;;;13.40;61.05;100094.25;4867894;28;99127;-51
2022/10/01 04:44:33;;;;;;;7.83;1.50;;;;;;;13.38;61.06;100097.56;4865378;28;107090;-51
2022/10/01 04:46:58;;;;;;;1.23;1.13;;;;;;;13.36;61.23;100083.53;4860413;28;106833;-51
2022/10/01 04:49:24;;;;;;;5.43;1.53;;;;;;;13.33;61.27;100083.81;4873081;28;97682;-55
2022/10/01 04:51:49;;;;;;;1.40;0.93;;;;;;;13.31;61.44;100089.88;4870247;28;109223;-51
2022/10/01 04:54:14;;;;;;;3.50;1.60;;;;;;;13.29;61.68;100095.16;4855072;28;113435;-51
2022/10/01 04:56:40;;;;;;;3.03;1.43;;;;;;;13.29;61.46;100086.88;4862227;28;97571;-51
2022/10/01 04:59:05;;;;;;;3.23;1.40;;;;;;;13.27;61.59;100072.84;4868011;28;101267;-51
2022/10/01 05:01:31;;;;;;;2.50;1.70;;;;;;;13.28;61.69;100065.31;4851366;28;115656;-51
2022/10/01 05:03:56;;;;;;;1.87;1.77;;;;;;;13.27;61.75;100069.34;4864039;28;96756;-51
2022/10/01 05:06:22;;;;;;;1.67;1.57;;;;;;;13.25;61.75;100060.84;4866767;28;97129;-51
2022/10/01 05:08:48;;;;;;;1.43;1.33;;;;;;;13.26;61.91;100067.84;4851123;28;97588;-51
2022/10/01 05:11:14;;;;;;;2.00;1.67;;;;;;;13.25;61.84;100064.34;4869486;28;97207;-51
2022/10/01 05:13:40;;;;;;;2.60;1.53;;;;;;;13.23;61.95;100047.56;4852361;28;97055;-51
2022/10/01 05:16:06;;;;;;;2.17;1.53;;;;;;;13.24;62.12;100054.56;4871319;28;96987;-51
2022/10/01 05:18:31;;;;;;;3.57;1.50;;;;;;;13.23;62.07;100044.78;4855907;28;98433;-52
2022/10/01 05:20:57;;;;;;;1.47;1.37;;;;;;;13.24;62.14;100034.47;4851058;28;103698;-52
2022/10/01 05:23:22;;;;;;;2.50;1.70;;;;;;;13.24;62.35;100031.69;4864866;28;97297;-53
2022/10/01 05:25:48;;;;;;;1.67;1.57;;;;;;;13.24;62.33;100026.94;4869274;28;96906;-53
2022/10/01 05:28:14;;;;;;;1.53;1.43;;;;;;;13.23;62.29;100022.69;4849651;28;97491;-52
2022/10/01 05:30:40;;;;;;;2.07;1.87;;;;;;;13.21;62.41;100022.47;4865107;28;97515;-53
2022/10/01 05:33:05;;;;;;;2.80;2.10;;;;;;;13.21;62.37;100024.50;4869599;28;97064;-53
2022/10/01 05:35:30;;;;;;;1.43;1.33;;;;;;;13.19;62.44;100016.72;4859749;28;97469;-53
2022/10/01 05:37:58;;;;;;;1.30;1.30;;;;;;;13.15;62.57;100007.97;4866789;28;97200;-53
2022/10/01 05:40:26;;;;;;;1.67;1.57;;;;;;;13.18;62.73;100006.94;4853076;28;97160;-53
2022/10/01 05:42:52;;;;;;;2.30;1.33;;;;;;;13.16;62.59;100005.97;4869193;28;96802;-52
2022/10/01 05:45:21;;;;;;;3.03;1.80;;;;;;;13.17;62.94;100001.97;4869858;28;97114;-53
2022/10/01 05:47:48;;;;;;;4.03;1.50;;;;;;;13.15;62.72;99974.84;4843675;28;97357;-50
2022/10/01 05:50:14;;;;;;;5.90;1.80;;;;;;;13.16;62.97;99961.78;4864696;28;97222;-53
2022/10/01 05:52:47;;;;;;;2.60;1.40;;;;;;;13.18;63.32;99982.09;4864288;28;97175;-53
2022/10/01 05:55:12;;;;;;;1.60;1.50;;;;;;;13.19;63.07;99982.84;4870581;28;97589;-53
2022/10/01 05:57:38;;;;;;;7.37;1.70;;;;;;;13.19;63.13;99971.78;4863513;28;114509;-53
2022/10/01 06:00:04;;;;;;;2.37;2.03;;;;;;;13.19;63.15;99972.50;4857063;28;97211;-52
2022/10/01 06:02:29;;;;;;;18.97;1.93;;;;;;;13.19;63.03;99972.50;4863592;28;97615;-53
2022/10/01 06:04:54;;;;;;;3.00;1.83;;;;;;;13.18;63.22;99964.75;4875577;28;109007;-50
2022/10/01 06:07:20;;;;;;;1.93;1.80;;;;;;;13.20;63.16;99967.75;4843411;28;97499;-53
2022/10/01 06:09:45;;;;;;;6.10;2.10;;;;;;;13.20;63.30;99971.25;4858858;28;106974;-52
2022/10/01 06:12:11;;;;;;;1.80;1.70;;;;;;;13.20;63.24;99962.97;4868476;28;96813;-53
2022/10/01 06:14:36;;;;;;;1.40;1.30;;;;;;;13.21;63.35;99952.66;4856020;28;97401;-52
2022/10/01 06:17:01;;;;;;;1.70;1.60;;;;;;;13.21;63.45;99952.66;4862937;28;117088;-52
2022/10/01 06:19:27;;;;;;;3.40;2.03;;;;;;;13.18;63.47;99951.72;4848292;28;106656;-53
2022/10/01 06:21:52;;;;;;;1.53;1.17;;;;;;;13.19;63.37;99952.47;4871407;28;97284;-53
2022/10/01 06:24:17;;;;;;;1.47;1.37;;;;;;;13.23;62.99;99952.88;4863790;28;97235;-52
2022/10/01 06:26:43;;;;;;;6.03;1.70;;;;;;;13.24;63.41;99949.59;4856110;28;97336;-52
2022/10/01 06:29:09;;;;;;;2.23;1.70;;;;;;;13.22;63.39;99938.31;4863650;28;97584;-55
2022/10/01 06:31:34;;;;;;;1.97;1.87;;;;;;;13.24;63.50;99933.03;4867088;28;97270;-52
2022/10/01 06:34:00;;;;;;;3.70;1.50;;;;;;;13.28;63.66;99946.53;4850946;28;111584;-52
2022/10/01 06:36:25;;;;;;;1.20;1.20;;;;;;;13.29;63.53;99951.53;4864042;28;98568;-52
2022/10/01 06:38:51;;;;;;;1.47;1.37;;;;;;;13.28;63.55;99950.03;4864763;28;98034;-52
2022/10/01 06:41:17;;;;;;;2.30;1.73;;;;;;;13.30;63.73;99947.47;4862583;28;97401;-52
2022/10/01 06:43:42;;;;;;;2.00;1.50;;;;;;;13.30;63.65;99964.06;4872326;28;97284;-52
2022/10/01 06:46:09;;;;;;;1.80;1.70;;;;;;;13.34;63.76;99939.66;4857149;28;100376;-52
2022/10/01 06:48:35;;;;;;;1.07;1.07;;;;;;;13.34;63.77;99944.41;4868963;28;102747;-51
2022/10/01 06:51:01;;;;;;;1.27;1.17;;;;;;;13.34;63.79;99928.59;4870586;28;97095;-52
2022/10/01 06:53:27;;;;;;;1.93;1.67;;;;;;;13.34;63.96;99939.66;4854311;28;98044;-50
2022/10/01 06:55:53;;;;;;;1.50;1.40;;;;;;;13.36;63.76;99928.81;4865087;28;97600;-52
2022/10/01 06:58:20;;;;;;;3.13;1.27;;;;;;;13.32;63.94;99922.09;4866069;28;97138;-52
2022/10/01 07:00:47;;;;;;;1.27;1.13;;;;;;;13.38;63.98;99925.50;4840876;28;97357;-52
2022/10/01 07:03:15;;;;;;;3.70;1.13;;;;;;;13.40;63.99;99915.41;4868191;28;96759;-50
2022/10/01 07:05:41;;;;;;;1.87;1.40;;;;;;;13.39;64.00;99915.94;4860013;28;97450;-52
2022/10/01 07:08:06;;;;;;;1.77;1.03;;;;;;;13.41;64.10;99921.69;4873877;28;96719;-52
2022/10/01 07:10:33;;;;;;;1.77;1.67;;;;;;;13.44;64.08;99915.09;4865040;28;97003;-52
2022/10/01 07:13:09;;;;;;;0.90;0.90;;;;;;;13.47;64.34;99906.50;4851981;28;97052;-52
2022/10/01 07:15:35;;;;;;;1.07;1.03;;;;;;;13.49;64.05;99914.25;4862511;28;97778;-52
2022/10/01 07:18:00;;;;;;;1.03;1.03;;;;;;;13.49;64.01;99900.44;4859150;28;101395;-52
2022/10/01 07:20:26;;;;;;;1.40;1.07;;;;;;;13.54;64.05;99899.59;4863178;28;96985;-52
2022/10/01 07:23:00;;;;;;;1.47;1.37;;;;;;;13.55;64.68;99890.03;4870112;28;97028;-52
2022/10/01 07:25:27;;;;;;;1.30;1.20;;;;;;;13.52;64.02;99894.59;4856323;28;97381;-52
2022/10/01 07:27:57;;;;;;;1.30;1.20;;;;;;;13.51;64.24;99884.81;4877161;28;96947;-51
2022/10/01 07:30:23;;;;;;;0.83;0.83;;;;;;;13.51;64.19;99887.59;4858764;28;97221;-52
2022/10/01 07:32:49;;;;;;;1.20;1.20;;;;;;;13.56;64.32;99894.28;4871180;28;96895;-52
2022/10/01 07:35:15;;;;;;;1.20;0.90;;;;;;;13.55;64.39;99884.50;4867192;28;96933;-52
2022/10/01 07:37:40;;;;;;;1.40;1.30;;;;;;;13.59;64.24;99887.69;4855462;28;98482;-52
2022/10/01 07:40:07;;;;;;;1.23;1.23;;;;;;;13.61;64.38;99892.69;4871249;28;96826;-51
2022/10/01 07:42:33;;;;;;;1.87;1.30;;;;;;;13.62;64.44;99894.91;4871258;28;97301;-51
2022/10/01 07:44:58;;;;;;;1.27;1.13;;;;;;;13.61;64.44;99887.88;4857114;28;97194;-51
2022/10/01 07:47:23;;;;;;;3.10;1.30;;;;;;;13.61;64.57;99892.69;4866653;28;109557;-51
2022/10/01 07:49:49;;;;;;;1.13;0.80;;;;;;;13.62;64.55;99888.66;4869268;28;97032;-52
2022/10/01 07:52:14;;;;;;;1.37;1.27;;;;;;;13.64;64.38;99892.38;4854331;28;97529;-51
2022/10/01 07:54:39;;;;;;;3.20;1.33;;;;;;;13.65;64.64;99893.84;4870486;28;97579;-51
2022/10/01 07:57:05;;;;;;;1.23;1.13;;;;;;;13.66;64.59;99884.28;4854397;28;97099;-51
2022/10/01 07:59:30;;;;;;;0.70;0.70;;;;;;;13.65;64.85;99891.06;4861736;28;97352;-50
2022/10/01 08:01:55;;;;;;;1.50;1.30;;;;;;;13.65;64.70;99893.84;4864382;28;97031;-51
2022/10/01 08:07:07;;;;;;;1.37;1.27;;;;;;;13.69;64.54;99888.75;4867381;28;98610;-51
2022/10/01 08:09:33;;;;;;;0.90;0.90;;;;;;;13.71;64.70;99902.03;4859044;28;97045;-52
2022/10/01 08:11:58;;;;;;;2.50;0.97;;;;;;;13.71;64.64;99888.97;4861141;28;98066;-51
2022/10/01 08:14:24;;;;;;;1.33;0.90;;;;;;;13.75;64.75;99889.38;4872047;28;97537;-51
2022/10/01 08:16:50;;;;;;;1.80;1.17;;;;;;;13.73;64.96;99888.44;4853345;28;97282;-52
2022/10/01 08:19:15;;;;;;;1.00;1.00;;;;;;;13.76;64.79;99892.91;4875697;28;100259;-52
2022/10/01 08:21:41;;;;;;;1.10;0.90;;;;;;;13.77;64.83;99899.91;4876414;28;97035;-54
2022/10/01 08:24:07;;;;;;;9.13;1.30;;;;;;;13.76;64.98;99898.44;4845277;28;97740;-56
2022/10/01 08:26:33;;;;;;;0.80;0.80;;;;;;;13.75;65.00;99914.28;4864817;28;97047;-51
2022/10/01 08:28:58;;;;;;;1.33;1.23;;;;;;;13.77;65.12;99899.91;4861071;28;97329;-51
2022/10/01 08:31:24;;;;;;;6.10;1.20;;;;;;;13.80;64.93;99909.91;4869345;28;97246;-51
2022/10/01 08:33:50;;;;;;;1.87;1.00;;;;;;;13.80;65.01;99905.13;4860562;28;97387;-51
2022/10/01 08:36:15;;;;;;;0.93;0.90;;;;;;;13.83;64.99;99897.78;4851414;28;97382;-51
2022/10/01 08:38:45;;;;;;;4.50;0.90;;;;;;;13.85;65.17;99895.22;4864964;28;96899;-49
2022/10/01 08:41:35;;;;;;;1.00;0.77;;;;;;;13.88;65.88;99905.97;4868513;28;96940;-52
2022/10/01 08:44:03;;;;;;;0.60;0.60;;;;;;;13.88;65.25;99899.69;4874407;28;100776;-51
2022/10/01 08:46:33;;;;;;;2.10;0.70;;;;;;;13.93;65.06;99887.78;4855156;28;97283;-51
2022/10/01 08:49:05;;;;;;;0.77;0.77;;;;;;;13.97;65.31;99899.25;4865890;28;97266;-51
2022/10/01 08:52:02;;;;;;;2.20;0.80;;;;;;;13.97;66.07;99890.97;4859003;28;97230;-50
2022/10/01 08:54:36;;;;;;;0.93;0.93;;;;;;;13.97;65.49;99896.50;4866204;28;100553;-52
2022/10/01 08:57:08;;;;;;;0.70;0.70;;;;;;;14.01;65.07;99902.44;4859162;28;96931;-52
2022/10/01 08:59:43;;;;;;;1.83;0.77;;;;;;;14.00;65.48;99907.22;4868815;28;97102;-50
2022/10/01 09:02:28;;;;;;;1.43;0.90;;;;;;;14.03;65.91;99902.66;4854508;28;97282;-52
2022/10/01 09:05:04;;;;;;;0.60;0.60;;;;;;;14.07;65.48;99881.69;4866709;28;101191;-55
2022/10/01 09:07:29;;;;;;;2.03;0.63;;;;;;;14.17;65.45;99891.03;4865751;28;102934;-52
2022/10/01 09:10:04;;;;;;;4.70;0.97;;;;;;;14.29;65.47;99897.09;4863825;28;96677;-52
2022/10/01 09:12:40;;;;;;;2.13;0.63;;;;;;;14.39;65.40;99914.75;4854776;28;97312;-51
2022/10/01 09:15:21;;;;;;;0.90;0.80;;;;;;;14.44;65.75;99915.91;4875132;28;102012;-52
2022/10/01 09:18:06;;;;;;;3.03;0.70;;;;;;;14.48;65.23;99922.56;4869485;28;102141;-51
2022/10/01 09:20:39;;;;;;;3.23;0.80;;;;;;;14.50;65.47;99911.00;4852910;28;97658;-52
2022/10/01 09:23:24;;;;;;;0.90;0.77;;;;;;;14.56;65.57;99917.88;4867743;28;97734;-52
2022/10/01 09:25:50;;;;;;;0.60;0.60;;;;;;;14.58;65.18;99920.84;4855236;28;97934;-52
2022/10/01 09:28:51;;;;;;;2.10;0.83;;;;;;;14.55;65.99;99926.72;4867771;28;96972;-52
2022/10/01 09:31:34;;;;;;;0.57;0.57;;;;;;;14.62;65.71;99926.06;4865370;28;97182;-52
2022/10/01 09:34:13;;;;;;;1.13;0.80;;;;;;;14.67;65.40;99920.41;4855795;28;96825;-52
2022/10/01 09:37:04;;;;;;;0.60;0.60;;;;;;;14.72;65.98;99924.34;4873049;28;100473;-52
2022/10/01 09:39:59;;;;;;;0.60;0.60;;;;;;;14.78;65.91;99924.94;4866177;28;101515;-51
2022/10/01 09:42:28;;;;;;;1.57;0.50;;;;;;;14.76;65.31;99925.50;4867148;28;96868;-51
2022/10/01 09:44:53;;;;;;;1.00;0.90;;;;;;;14.78;65.27;99922.91;4857694;28;96784;-52
2022/10/01 09:47:21;;;;;;;1.43;0.97;;;;;;;14.82;65.34;99915.03;4855261;28;97601;-52
2022/10/01 09:49:48;;;;;;;2.50;0.67;;;;;;;14.88;65.43;99912.84;4863927;28;97735;-49
2022/10/01 09:52:27;;;;;;;1.10;0.77;;;;;;;14.93;65.41;99917.53;4861770;28;97047;-52
2022/10/01 09:55:00;;;;;;;0.80;0.73;;;;;;;14.95;65.51;99922.50;4858645;28;97412;-52
2022/10/01 09:57:32;;;;;;;0.83;0.83;;;;;;;14.97;65.57;99926.25;4856937;28;97843;-51
2022/10/01 10:00:27;;;;;;;1.10;0.80;;;;;;;14.98;66.23;99927.72;4870729;28;97256;-55
2022/10/01 10:02:54;;;;;;;3.90;1.00;;;;;;;15.05;65.46;99929.06;4855691;28;97109;-51
2022/10/01 10:05:23;;;;;;;1.07;0.83;;;;;;;15.13;65.44;99929.13;4871610;28;97012;-52
2022/10/01 10:07:52;;;;;;;0.90;0.90;;;;;;;15.18;65.55;99929.00;4853714;28;97046;-52
2022/10/01 10:10:29;;;;;;;1.23;1.13;;;;;;;15.22;65.94;99940.50;4865621;28;97428;-51
2022/10/01 10:13:03;;;;;;;2.63;0.93;;;;;;;15.21;65.37;99916.84;4864664;28;96787;-52
2022/10/01 10:15:31;;;;;;;1.33;1.23;;;;;;;15.22;65.32;99937.72;4868306;28;102361;-52
2022/10/01 10:18:06;;;;;;;1.10;1.10;;;;;;;15.27;65.75;99938.84;4861752;28;97614;-51
2022/10/01 10:20:38;;;;;;;1.10;1.10;;;;;;;15.28;65.57;99930.00;4870706;28;97592;-55
2022/10/01 10:23:12;;;;;;;1.10;0.93;;;;;;;15.34;65.75;99938.19;4860387;28;97012;-52
2022/10/01 10:25:38;;;;;;;2.57;1.50;;;;;;;15.38;65.67;99950.41;4865530;28;97543;-52
2022/10/01 10:28:18;;;;;;;2.83;1.10;;;;;;;15.47;66.00;99944.41;4869060;28;97360;-52
2022/10/01 10:30:43;;;;;;;1.17;0.90;;;;;;;15.53;65.67;99947.06;4861854;28;101395;-52
2022/10/01 10:33:13;;;;;;;1.47;0.90;;;;;;;15.58;65.56;99951.69;4873811;28;97121;-50
2022/10/01 10:35:39;;;;;;;1.13;1.13;;;;;;;15.63;65.57;99948.78;4855302;28;97084;-52
2022/10/01 10:38:05;;;;;;;0.83;0.83;;;;;;;15.69;65.57;99945.84;4864086;28;96904;-51
2022/10/01 10:40:40;;;;;;;3.70;1.07;;;;;;;15.77;65.75;99951.47;4860806;28;96955;-51
2022/10/01 10:43:18;;;;;;;1.40;1.33;;;;;;;15.84;65.76;99957.03;4864908;28;101860;-51
2022/10/01 10:45:45;;;;;;;1.67;1.20;;;;;;;15.86;65.38;99962.78;4847830;28;97325;-50
2022/10/01 10:48:16;;;;;;;1.37;1.27;;;;;;;15.89;65.53;99964.47;4867332;28;96981;-51
2022/10/01 10:50:45;;;;;;;1.83;1.10;;;;;;;15.94;65.41;99979.50;4868723;28;103124;-51
2022/10/01 10:53:21;;;;;;;1.30;1.00;;;;;;;15.98;65.28;99969.53;4858151;28;97000;-51
2022/10/01 10:55:59;;;;;;;1.97;1.23;;;;;;;16.01;65.69;99970.47;4868924;28;97294;-51
2022/10/01 10:58:33;;;;;;;3.10;1.20;;;;;;;16.05;65.45;99974.41;4867998;28;100609;-51
2022/10/01 11:01:12;;;;;;;1.53;1.23;;;;;;;16.12;65.71;99976.44;4864981;28;101512;-51
2022/10/01 11:03:49;;;;;;;2.00;0.87;;;;;;;16.21;65.72;99973.16;4868162;28;97675;-50
2022/10/01 11:06:17;;;;;;;2.60;1.23;;;;;;;16.29;65.38;99978.78;4864893;28;97005;-50
2022/10/01 11:08:55;;;;;;;1.80;1.60;;;;;;;16.36;65.38;99983.59;4870424;28;100520;-50
2022/10/01 11:11:32;;;;;;;2.27;2.17;;;;;;;16.42;65.43;99982.13;4868104;28;101711;-50
2022/10/01 11:14:00;;;;;;;3.50;2.33;;;;;;;16.48;65.33;99988.28;4861354;28;97290;-50
2022/10/01 11:17:11;;;;;;;2.43;1.90;;;;;;;16.53;65.62;99981.13;4872562;28;97044;-50
2022/10/01 11:19:56;;;;;;;1.43;1.33;;;;;;;16.58;65.17;99990.59;4850033;28;101804;-52
2022/10/01 11:22:30;;;;;;;1.70;1.60;;;;;;;16.65;65.33;99996.16;4857797;28;102378;-51
2022/10/01 11:25:04;;;;;;;1.50;1.40;;;;;;;16.70;65.27;99995.25;4853502;28;97462;-50
2022/10/01 11:27:57;;;;;;;2.60;1.50;;;;;;;16.74;65.46;99995.63;4870146;28;97263;-51
2022/10/01 11:30:28;;;;;;;1.47;1.37;;;;;;;16.78;65.21;99995.25;4867660;28;101864;-51
2022/10/01 11:33:16;;;;;;;2.37;1.37;;;;;;;16.92;65.39;99997.34;4867174;28;99273;-52
2022/10/01 11:36:06;;;;;;;2.40;1.53;;;;;;;17.02;65.02;99989.22;4859143;28;96974;-51
2022/10/01 11:38:56;;;;;;;4.47;1.50;;;;;;;17.36;65.26;99997.97;4864387;28;97036;-52
2022/10/01 11:41:24;;;;;;;2.40;1.50;;;;;;;17.60;64.64;99997.47;4862318;28;100705;-53
2022/10/01 11:44:00;;;;;;;4.30;1.50;;;;;;;17.76;64.34;100001.69;4870609;28;98513;-53
2022/10/01 11:46:44;;;;;;;1.30;1.30;;;;;;;17.94;63.91;100005.38;4857023;28;96963;-51